createdAt,value
2019-02-27T00:00:47.473Z,65.252686
2019-02-27T00:01:56.976Z,65.045166
2019-02-27T00:03:06.778Z,65.148926
2019-02-27T00:04:16.408Z,64.94751
2019-02-27T00:05:25.988Z,64.84375
2019-02-27T00:06:35.488Z,64.94751
2019-02-27T00:07:44.987Z,64.94751
2019-02-27T00:08:54.483Z,64.94751
2019-02-27T00:10:06.090Z,65.148926
2019-02-27T00:11:14.465Z,65.148926
2019-02-27T00:12:24.017Z,65.356445
2019-02-27T00:13:33.521Z,65.252686
2019-02-27T00:14:43.040Z,65.386963
2019-02-27T00:15:52.537Z,65.490723
2019-02-27T00:17:02.041Z,65.594482
2019-02-27T00:18:12.535Z,65.490723
2019-02-27T00:19:22.053Z,65.594482
2019-02-27T00:20:31.579Z,65.698242
2019-02-27T00:21:43.503Z,65.698242
2019-02-27T00:22:51.677Z,65.802002
2019-02-27T00:24:01.042Z,65.802002
2019-02-27T00:25:10.544Z,65.594482
2019-02-27T00:26:20.063Z,65.594482
2019-02-27T00:27:29.569Z,65.802002
2019-02-27T00:28:39.103Z,65.802002
2019-02-27T00:29:48.602Z,65.594482
2019-02-27T00:30:58.125Z,65.594482
2019-02-27T00:32:07.618Z,65.386963
2019-02-27T00:33:17.119Z,65.148926
2019-02-27T00:34:27.613Z,65.252686
2019-02-27T00:35:39.535Z,65.148926
2019-02-27T00:36:47.683Z,65.148926
2019-02-27T00:37:57.179Z,65.045166
2019-02-27T00:39:06.675Z,65.148926
2019-02-27T00:40:16.176Z,65.045166
2019-02-27T00:41:25.693Z,64.94751
2019-02-27T00:42:35.192Z,64.978027
2019-02-27T00:43:44.772Z,64.874268
2019-02-27T00:44:54.283Z,64.874268
2019-02-27T00:46:03.797Z,64.874268
2019-02-27T00:47:13.362Z,64.770508
2019-02-27T00:48:25.946Z,64.770508
2019-02-27T00:49:33.330Z,64.874268
2019-02-27T00:50:42.839Z,64.978027
2019-02-27T00:51:52.346Z,64.874268
2019-02-27T00:53:01.847Z,64.978027
2019-02-27T00:54:11.352Z,64.978027
2019-02-27T00:55:20.863Z,64.770508
2019-02-27T00:56:30.374Z,64.874268
2019-02-27T00:57:39.873Z,64.770508
2019-02-27T00:58:49.377Z,64.874268
2019-02-27T00:59:58.877Z,64.874268
2019-02-27T01:01:09.999Z,65.075684
2019-02-27T01:02:20.151Z,64.978027
2019-02-27T01:03:28.356Z,64.874268
2019-02-27T01:04:37.852Z,64.978027
2019-02-27T01:05:47.354Z,64.978027
2019-02-27T01:06:56.895Z,64.874268
2019-02-27T01:08:06.392Z,65.075684
2019-02-27T01:09:15.893Z,65.179443
2019-02-27T01:10:25.397Z,65.179443
2019-02-27T01:11:34.927Z,65.283203
2019-02-27T01:12:44.437Z,65.179443
2019-02-27T01:13:53.932Z,65.283203
2019-02-27T01:15:03.440Z,64.978027
2019-02-27T01:16:16.927Z,64.874268
2019-02-27T01:17:23.718Z,64.874268
2019-02-27T01:18:32.911Z,64.666748
2019-02-27T01:19:42.989Z,64.666748
2019-02-27T01:20:51.916Z,64.666748
2019-02-27T01:22:01.436Z,64.770508
2019-02-27T01:23:11.583Z,64.770508
2019-02-27T01:24:20.429Z,64.666748
2019-02-27T01:25:29.910Z,64.801025
2019-02-27T01:26:39.429Z,64.801025
2019-02-27T01:27:48.933Z,64.904785
2019-02-27T01:28:58.439Z,64.801025
2019-02-27T01:30:07.941Z,65.002441
2019-02-27T01:31:17.436Z,65.002441
2019-02-27T01:32:28.819Z,64.904785
2019-02-27T01:33:38.089Z,64.801025
2019-02-27T01:34:46.905Z,64.904785
2019-02-27T01:35:56.431Z,64.801025
2019-02-27T01:37:05.937Z,65.002441
2019-02-27T01:38:15.571Z,64.904785
2019-02-27T01:39:25.074Z,65.106201
2019-02-27T01:40:34.574Z,65.209961
2019-02-27T01:41:44.085Z,65.344238
2019-02-27T01:42:53.630Z,65.344238
2019-02-27T01:44:03.130Z,65.344238
2019-02-27T01:45:12.631Z,65.344238
2019-02-27T01:46:25.147Z,65.655518
2019-02-27T01:47:35.614Z,65.447998
2019-02-27T01:48:43.841Z,65.551758
2019-02-27T01:49:52.599Z,65.447998
2019-02-27T01:51:02.100Z,65.447998
2019-02-27T01:52:11.610Z,65.344238
2019-02-27T01:53:21.132Z,65.344238
2019-02-27T01:54:30.640Z,65.240479
2019-02-27T01:55:40.155Z,65.136719
2019-02-27T01:56:49.675Z,65.240479
2019-02-27T01:57:59.174Z,65.240479
2019-02-27T01:59:08.673Z,65.447998
2019-02-27T02:00:22.944Z,65.478516
2019-02-27T02:01:30.131Z,65.789795
2019-02-27T02:02:40.450Z,65.997314
2019-02-27T02:03:48.128Z,66.101074
2019-02-27T02:04:57.109Z,66.30249
2019-02-27T02:06:06.609Z,66.19873
2019-02-27T02:07:16.141Z,66.30249
2019-02-27T02:08:25.655Z,66.40625
2019-02-27T02:09:35.156Z,66.748047
2019-02-27T02:10:44.661Z,67.059326
2019-02-27T02:11:54.190Z,67.401123
2019-02-27T02:13:03.689Z,67.504883
2019-02-27T02:14:13.198Z,67.913818
2019-02-27T02:15:27.060Z,68.255615
2019-02-27T02:16:34.301Z,68.566895
2019-02-27T02:17:42.672Z,68.981934
2019-02-27T02:18:52.169Z,69.189453
2019-02-27T02:20:01.670Z,69.085693
2019-02-27T02:21:11.172Z,68.981934
2019-02-27T02:22:20.689Z,68.878174
2019-02-27T02:23:30.193Z,68.670654
2019-02-27T02:24:39.697Z,68.463135
2019-02-27T02:25:49.196Z,68.432617
2019-02-27T02:26:58.694Z,68.359375
2019-02-27T02:28:08.208Z,68.121338
2019-02-27T02:29:20.347Z,68.225098
2019-02-27T02:30:29.705Z,68.121338
2019-02-27T02:31:40.716Z,68.225098
2019-02-27T02:32:51.900Z,68.255615
2019-02-27T02:33:57.629Z,68.255615
2019-02-27T02:35:08.107Z,68.463135
2019-02-27T02:36:24.762Z,68.255615
2019-02-27T02:37:29.090Z,68.151855
2019-02-27T02:38:39.577Z,68.255615
2019-02-27T02:39:54.148Z,68.359375
2019-02-27T02:40:59.564Z,68.463135
2019-02-27T02:42:10.050Z,68.566895
2019-02-27T02:43:19.563Z,68.597412
2019-02-27T02:44:29.069Z,68.804932
2019-02-27T02:45:38.569Z,69.012451
2019-02-27T02:46:48.080Z,69.116211
2019-02-27T02:47:57.574Z,69.219971
2019-02-27T02:49:08.469Z,69.219971
2019-02-27T02:50:17.649Z,69.32373
2019-02-27T02:51:28.967Z,69.219971
2019-02-27T02:52:40.128Z,69.32373
2019-02-27T02:53:48.538Z,69.32373
2019-02-27T02:54:55.499Z,69.32373
2019-02-27T02:56:04.999Z,69.32373
2019-02-27T02:57:14.500Z,69.53125
2019-02-27T02:58:24.011Z,69.73877
2019-02-27T02:59:33.516Z,69.976807
2019-02-27T03:00:43.039Z,69.976807
2019-02-27T03:01:52.533Z,70.184326
2019-02-27T03:03:02.153Z,70.495605
2019-02-27T03:04:12.753Z,70.391846
2019-02-27T03:05:23.564Z,70.288086
2019-02-27T03:06:34.365Z,70.391846
2019-02-27T03:07:44.415Z,70.495605
2019-02-27T03:08:54.878Z,70.526123
2019-02-27T03:10:06.655Z,70.837402
2019-02-27T03:11:17.636Z,70.941162
2019-02-27T03:12:21.968Z,70.941162
2019-02-27T03:13:32.466Z,70.837402
2019-02-27T03:14:42.972Z,70.837402
2019-02-27T03:15:53.518Z,70.941162
2019-02-27T03:17:04.022Z,71.044922
2019-02-27T03:18:13.537Z,71.044922
2019-02-27T03:19:23.050Z,71.044922
2019-02-27T03:20:32.549Z,70.941162
2019-02-27T03:21:42.060Z,70.837402
2019-02-27T03:22:51.566Z,70.837402
2019-02-27T03:24:02.074Z,70.733643
2019-02-27T03:25:11.579Z,70.837402
2019-02-27T03:26:21.070Z,70.837402
2019-02-27T03:27:30.820Z,70.733643
2019-02-27T03:28:40.883Z,70.733643
2019-02-27T03:29:53.337Z,70.733643
2019-02-27T03:30:59.079Z,70.837402
2019-02-27T03:32:08.574Z,70.941162
2019-02-27T03:33:24.386Z,71.148682
2019-02-27T03:34:28.564Z,71.282959
2019-02-27T03:35:38.069Z,71.490479
2019-02-27T03:36:47.567Z,71.697998
2019-02-27T03:37:57.074Z,71.801758
2019-02-27T03:39:06.587Z,71.905518
2019-02-27T03:40:16.099Z,72.113037
2019-02-27T03:41:25.578Z,72.253418
2019-02-27T03:42:35.190Z,72.357178
2019-02-27T03:43:45.901Z,72.460938
2019-02-27T03:44:56.131Z,72.564697
2019-02-27T03:46:06.169Z,72.564697
2019-02-27T03:47:16.560Z,72.668457
2019-02-27T03:48:27.392Z,72.668457
2019-02-27T03:49:39.494Z,72.772217
2019-02-27T03:50:49.387Z,72.772217
2019-02-27T03:51:59.575Z,72.772217
2019-02-27T03:53:10.463Z,72.875977
2019-02-27T03:54:20.395Z,72.875977
2019-02-27T03:55:31.475Z,73.010254
2019-02-27T03:56:35.989Z,73.010254
2019-02-27T03:57:46.475Z,73.114014
2019-02-27T03:58:56.984Z,73.321533
2019-02-27T04:00:07.511Z,73.529053
2019-02-27T04:01:18.001Z,73.773193
2019-02-27T04:02:27.492Z,74.188232
2019-02-27T04:03:36.997Z,74.530029
2019-02-27T04:04:46.510Z,74.737549
2019-02-27T04:05:56.013Z,75.463867
2019-02-27T04:07:05.517Z,75.671387
2019-02-27T04:08:15.019Z,75.671387
2019-02-27T04:09:24.542Z,75.463867
2019-02-27T04:10:34.042Z,75.22583
2019-02-27T04:11:43.527Z,74.914551
2019-02-27T04:12:53.025Z,74.499512
2019-02-27T04:14:04.626Z,74.151611
2019-02-27T04:15:17.644Z,74.047852
2019-02-27T04:16:28.798Z,74.047852
2019-02-27T04:17:32.960Z,74.151611
2019-02-27T04:18:42.474Z,74.151611
2019-02-27T04:19:52.011Z,74.188232
2019-02-27T04:21:01.528Z,74.291992
2019-02-27T04:22:11.046Z,74.291992
2019-02-27T04:23:20.551Z,74.291992
2019-02-27T04:24:30.060Z,74.395752
2019-02-27T04:25:39.584Z,74.499512
2019-02-27T04:26:49.087Z,74.603271
2019-02-27T04:27:58.622Z,74.603271
2019-02-27T04:29:08.550Z,74.707031
2019-02-27T04:30:17.625Z,74.810791
2019-02-27T04:31:30.486Z,74.810791
2019-02-27T04:32:36.610Z,74.810791
2019-02-27T04:33:46.133Z,74.914551
2019-02-27T04:34:55.662Z,74.914551
2019-02-27T04:36:05.162Z,75.048828
2019-02-27T04:37:17.704Z,75.152588
2019-02-27T04:38:27.501Z,75.256348
2019-02-27T04:39:35.851Z,75.360107
2019-02-27T04:40:45.164Z,75.567627
2019-02-27T04:41:54.663Z,75.671387
2019-02-27T04:43:04.165Z,75.775146
2019-02-27T04:44:13.700Z,75.982666
2019-02-27T04:45:23.213Z,75.982666
2019-02-27T04:46:32.753Z,76.086426
2019-02-27T04:47:42.258Z,76.123047
2019-02-27T04:48:51.783Z,76.123047
2019-02-27T04:50:01.288Z,76.226807
2019-02-27T04:51:10.789Z,76.226807
2019-02-27T04:52:21.900Z,76.226807
2019-02-27T04:53:31.798Z,76.226807
2019-02-27T04:54:41.505Z,76.226807
2019-02-27T04:55:50.524Z,76.226807
2019-02-27T04:56:59.328Z,76.226807
2019-02-27T04:58:09.525Z,76.226807
2019-02-27T04:59:19.223Z,76.330566
2019-02-27T05:00:27.824Z,76.330566
2019-02-27T05:01:37.469Z,76.470947
2019-02-27T05:02:46.863Z,76.885986
2019-02-27T05:04:00.932Z,77.197266
2019-02-27T05:05:08.554Z,77.545166
2019-02-27T05:06:16.375Z,77.752686
2019-02-27T05:07:25.907Z,77.856445
2019-02-27T05:08:35.429Z,78.515625
2019-02-27T05:09:44.934Z,79.034424
2019-02-27T05:10:54.435Z,79.138184
2019-02-27T05:12:03.970Z,79.382324
2019-02-27T05:13:13.555Z,79.486084
2019-02-27T05:14:24.772Z,79.907227
2019-02-27T05:15:33.583Z,79.870605
2019-02-27T05:16:46.944Z,79.870605
2019-02-27T05:17:55.595Z,79.760742
2019-02-27T05:19:04.733Z,79.656982
2019-02-27T05:20:13.565Z,79.449463
2019-02-27T05:21:23.069Z,79.449463
2019-02-27T05:22:32.587Z,79.101562
2019-02-27T05:23:42.094Z,78.894043
2019-02-27T05:24:51.597Z,78.790283
2019-02-27T05:26:01.172Z,78.790283
2019-02-27T05:27:10.685Z,78.686523
2019-02-27T05:28:20.195Z,78.271484
2019-02-27T05:29:29.694Z,78.027344
2019-02-27T05:30:40.193Z,77.923584
2019-02-27T05:31:53.142Z,77.923584
2019-02-27T05:33:02.038Z,77.716064
2019-02-27T05:34:12.345Z,77.716064
2019-02-27T05:35:23.287Z,77.716064
2019-02-27T05:36:31.601Z,77.960205
2019-02-27T05:37:39.392Z,78.167725
2019-02-27T05:38:48.675Z,78.582764
2019-02-27T05:39:58.191Z,78.375244
2019-02-27T05:41:07.694Z,78.582764
2019-02-27T05:42:17.213Z,78.930664
2019-02-27T05:43:26.719Z,79.241943
2019-02-27T05:44:36.269Z,79.278564
2019-02-27T05:45:45.783Z,79.382324
2019-02-27T05:46:55.326Z,79.589844
2019-02-27T05:48:04.833Z,80.047607
2019-02-27T05:49:14.336Z,80.462646
2019-02-27T05:50:23.859Z,80.566406
2019-02-27T05:51:33.372Z,80.914307
2019-02-27T05:52:42.896Z,81.121826
2019-02-27T05:53:53.385Z,81.054688
2019-02-27T05:55:06.290Z,81.890869
2019-02-27T05:56:16.225Z,82.409668
2019-02-27T05:57:23.347Z,82.617188
2019-02-27T05:58:32.553Z,82.720947
2019-02-27T05:59:42.102Z,82.824707
2019-02-27T06:00:51.675Z,82.720947
2019-02-27T06:02:01.234Z,82.720947
2019-02-27T06:03:10.826Z,82.971191
2019-02-27T06:04:24.903Z,82.971191
2019-02-27T06:05:30.961Z,82.971191
2019-02-27T06:06:44.846Z,83.074951
2019-02-27T06:07:51.050Z,83.38623
2019-02-27T06:09:00.624Z,83.69751
2019-02-27T06:10:10.236Z,83.80127
2019-02-27T06:11:19.735Z,83.69751
2019-02-27T06:12:29.313Z,83.740234
2019-02-27T06:13:38.907Z,83.740234
2019-02-27T06:14:49.467Z,83.740234
2019-02-27T06:16:02.527Z,83.947754
2019-02-27T06:17:12.781Z,84.674072
2019-02-27T06:18:22.725Z,84.991455
2019-02-27T06:19:30.540Z,84.881592
2019-02-27T06:20:41.849Z,84.777832
2019-02-27T06:21:48.813Z,84.570312
2019-02-27T06:23:03.858Z,84.570312
2019-02-27T06:24:12.412Z,85.095215
2019-02-27T06:25:23.124Z,85.510254
2019-02-27T06:26:32.148Z,85.821533
2019-02-27T06:27:39.401Z,86.029053
2019-02-27T06:28:48.192Z,85.925293
2019-02-27T06:29:59.629Z,85.821533
2019-02-27T06:31:07.312Z,85.614014
2019-02-27T06:32:16.889Z,85.473633
2019-02-27T06:33:26.532Z,85.26001
2019-02-27T06:34:36.101Z,84.844971
2019-02-27T06:35:45.677Z,84.533691
2019-02-27T06:36:55.222Z,84.179688
2019-02-27T06:38:04.842Z,84.283447
2019-02-27T06:39:14.449Z,84.075928
2019-02-27T06:40:24.011Z,83.660889
2019-02-27T06:41:33.621Z,83.312988
2019-02-27T06:42:44.188Z,82.995605
2019-02-27T06:43:53.758Z,82.580566
2019-02-27T06:45:04.299Z,82.647705
2019-02-27T06:46:17.286Z,82.336426
2019-02-27T06:47:25.410Z,82.128906
2019-02-27T06:48:35.021Z,81.921387
2019-02-27T06:49:45.579Z,81.463623
2019-02-27T06:50:58.208Z,81.256104
2019-02-27T06:52:08.946Z,80.700684
2019-02-27T06:53:16.570Z,80.041504
2019-02-27T06:54:25.773Z,79.205322
2019-02-27T06:55:35.346Z,78.649902
2019-02-27T06:56:44.897Z,77.990723
2019-02-27T06:57:54.480Z,77.368164
2019-02-27T06:59:04.098Z,76.916504
2019-02-27T07:00:13.682Z,76.159668
2019-02-27T07:01:23.246Z,75.537109
2019-02-27T07:02:32.798Z,75.085449
2019-02-27T07:03:42.419Z,74.32251
2019-02-27T07:04:52.011Z,73.803711
2019-02-27T07:06:01.586Z,73.461914
2019-02-27T07:07:11.200Z,73.046875
2019-02-27T07:08:20.752Z,72.808838
2019-02-27T07:09:30.305Z,72.045898
2019-02-27T07:10:39.887Z,71.392822
2019-02-27T07:11:49.461Z,70.532227
2019-02-27T07:12:58.997Z,69.775391
2019-02-27T07:14:08.608Z,68.951416
2019-02-27T07:15:18.209Z,68.951416
2019-02-27T07:16:27.792Z,68.4021
2019-02-27T07:17:37.365Z,67.852783
2019-02-27T07:18:47.006Z,67.132568
2019-02-27T07:19:56.592Z,66.687012
2019-02-27T07:21:06.124Z,66.479492
2019-02-27T07:22:15.801Z,65.83252
2019-02-27T07:23:25.385Z,65.313721
2019-02-27T07:24:34.995Z,65.002441
2019-02-27T07:25:44.546Z,64.978027
2019-02-27T07:26:54.130Z,64.874268
2019-02-27T07:28:08.110Z,64.94751
2019-02-27T07:29:21.251Z,64.019775
2019-02-27T07:30:24.789Z,63.885498
2019-02-27T07:31:34.373Z,63.165283
2019-02-27T07:32:43.924Z,62.62207
2019-02-27T07:33:53.521Z,62.280273
2019-02-27T07:35:03.086Z,60.943604
2019-02-27T07:36:12.630Z,61.016846
2019-02-27T07:37:22.231Z,60.50415
2019-02-27T07:38:31.806Z,60.60791
2019-02-27T07:39:41.420Z,60.943604
2019-02-27T07:40:51.003Z,61.248779
2019-02-27T07:42:00.553Z,60.839844
2019-02-27T07:43:10.142Z,60.71167
2019-02-27T07:44:19.760Z,60.192871
2019-02-27T07:45:29.342Z,59.960938
2019-02-27T07:46:38.867Z,59.625244
2019-02-27T07:47:48.428Z,59.008789
2019-02-27T07:48:58.041Z,58.673096
2019-02-27T07:50:08.802Z,57.824707
2019-02-27T07:51:17.099Z,57.409668
2019-02-27T07:52:32.050Z,56.665039
2019-02-27T07:53:38.174Z,56.896973
2019-02-27T07:54:47.775Z,56.793213
2019-02-27T07:55:57.329Z,57.543945
2019-02-27T07:57:06.941Z,57.928467
2019-02-27T07:58:16.521Z,57.080078
2019-02-27T07:59:26.089Z,56.335449
2019-02-27T08:00:35.638Z,55.688477
2019-02-27T08:01:45.201Z,55.560303
2019-02-27T08:02:54.784Z,54.333496
2019-02-27T08:04:04.390Z,54.205322
2019-02-27T08:05:13.944Z,54.101562
2019-02-27T08:06:23.729Z,53.564453
2019-02-27T08:07:33.121Z,53.155518
2019-02-27T08:08:42.715Z,52.722168
2019-02-27T08:09:52.372Z,52.313232
2019-02-27T08:11:01.902Z,52.105713
2019-02-27T08:12:11.473Z,52.416992
2019-02-27T08:13:22.024Z,52.288818
2019-02-27T08:14:36.690Z,51.776123
2019-02-27T08:15:43.168Z,51.446533
2019-02-27T08:16:56.909Z,50.805664
2019-02-27T08:18:03.420Z,50.604248
2019-02-27T08:19:12.881Z,50.170898
2019-02-27T08:20:23.447Z,49.633789
2019-02-27T08:21:33.020Z,49.224854
2019-02-27T08:22:42.533Z,48.999023
2019-02-27T08:23:52.109Z,48.980713
2019-02-27T08:25:01.707Z,48.364258
2019-02-27T08:26:11.298Z,47.937012
2019-02-27T08:27:20.848Z,47.631836
2019-02-27T08:28:30.397Z,46.99707
2019-02-27T08:29:40.016Z,46.691895
2019-02-27T08:30:49.560Z,46.99707
2019-02-27T08:32:01.142Z,46.588135
2019-02-27T08:33:09.677Z,46.154785
2019-02-27T08:34:20.249Z,45.727539
2019-02-27T08:35:29.812Z,45.935059
2019-02-27T08:36:39.375Z,45.300293
2019-02-27T08:37:48.986Z,45.074463
2019-02-27T08:38:59.536Z,43.75
2019-02-27T08:40:09.122Z,43.322754
2019-02-27T08:41:18.704Z,43.304443
2019-02-27T08:42:28.266Z,42.08374
2019-02-27T08:43:41.169Z,42.06543
2019-02-27T08:44:48.414Z,41.96167
2019-02-27T08:46:02.055Z,41.8396
2019-02-27T08:47:10.196Z,40.722656
2019-02-27T08:48:18.125Z,40.301514
2019-02-27T08:49:27.565Z,40.301514
2019-02-27T08:50:37.113Z,39.996338
2019-02-27T08:51:46.659Z,40.319824
2019-02-27T08:52:57.790Z,40.118408
2019-02-27T08:54:05.793Z,40.319824
2019-02-27T08:55:19.041Z,40.319824
2019-02-27T08:56:25.883Z,39.385986
2019-02-27T08:57:35.480Z,39.605713
2019-02-27T08:58:45.032Z,39.300537
2019-02-27T08:59:54.587Z,39.300537
2019-02-27T09:01:04.134Z,39.813232
2019-02-27T09:02:13.707Z,39.385986
2019-02-27T09:03:23.324Z,39.0625
2019-02-27T09:04:32.944Z,38.354492
2019-02-27T09:05:42.498Z,38.555908
2019-02-27T09:06:52.039Z,38.433838
2019-02-27T09:08:02.599Z,37.908936
2019-02-27T09:09:12.157Z,38.195801
2019-02-27T09:10:23.105Z,36.657715
2019-02-27T09:11:33.273Z,36.657715
2019-02-27T09:12:45.276Z,36.541748
2019-02-27T09:13:54.365Z,36.120605
2019-02-27T09:15:03.966Z,35.717773
2019-02-27T09:16:13.487Z,35.498047
2019-02-27T09:17:26.800Z,35.498047
2019-02-27T09:18:33.273Z,35.498047
2019-02-27T09:19:44.939Z,35.699463
2019-02-27T09:20:53.140Z,34.875488
2019-02-27T09:22:02.383Z,34.973145
2019-02-27T09:23:10.447Z,34.875488
2019-02-27T09:24:19.951Z,34.552002
2019-02-27T09:25:29.474Z,34.857178
2019-02-27T09:26:38.971Z,34.637451
2019-02-27T09:27:48.465Z,33.917236
2019-02-27T09:28:57.975Z,33.007812
2019-02-27T09:30:07.496Z,32.891846
2019-02-27T09:31:17.079Z,32.891846
2019-02-27T09:32:26.581Z,32.183838
2019-02-27T09:33:38.636Z,30.957031
2019-02-27T09:34:45.586Z,30.255127
2019-02-27T09:35:55.091Z,30.236816
2019-02-27T09:37:04.595Z,30.541992
2019-02-27T09:38:14.097Z,30.438232
2019-02-27T09:39:23.615Z,30.13916
2019-02-27T09:40:38.206Z,30.523682
2019-02-27T09:41:46.863Z,30.322266
2019-02-27T09:42:54.195Z,30.523682
2019-02-27T09:44:03.738Z,30.224609
2019-02-27T09:45:13.081Z,30.010986
2019-02-27T09:46:22.637Z,30.010986
2019-02-27T09:47:32.138Z,29.589844
2019-02-27T09:48:41.645Z,28.887939
2019-02-27T09:49:51.149Z,28.167725
2019-02-27T09:51:00.668Z,28.271484
2019-02-27T09:52:10.182Z,28.45459
2019-02-27T09:53:19.689Z,27.856445
2019-02-27T09:54:29.204Z,28.356934
2019-02-27T09:55:38.722Z,28.143311
2019-02-27T09:56:48.217Z,28.344727
2019-02-27T09:57:57.717Z,28.253174
2019-02-27T09:59:07.217Z,28.4729
2019-02-27T10:00:16.733Z,27.563477
2019-02-27T10:01:26.242Z,27.46582
2019-02-27T10:02:36.761Z,27.7771
2019-02-27T10:03:47.260Z,27.667236
2019-02-27T10:05:01.397Z,27.856445
2019-02-27T10:06:08.702Z,26.849365
2019-02-27T10:07:17.062Z,26.635742
2019-02-27T10:08:26.271Z,26.23291
2019-02-27T10:09:35.732Z,26.342773
2019-02-27T10:10:46.048Z,26.745605
2019-02-27T10:11:54.724Z,26.745605
2019-02-27T10:13:04.216Z,27.062988
2019-02-27T10:14:14.096Z,26.959229
2019-02-27T10:15:25.118Z,27.46582
2019-02-27T10:16:34.751Z,27.349854
2019-02-27T10:17:43.640Z,27.13623
2019-02-27T10:18:54.637Z,26.12915
2019-02-27T10:20:02.335Z,25.616455
2019-02-27T10:21:12.016Z,24.298096
2019-02-27T10:22:21.116Z,23.7854
2019-02-27T10:23:31.125Z,25.177002
2019-02-27T10:24:39.142Z,24.176025
2019-02-27T10:25:49.910Z,23.162842
2019-02-27T10:26:59.151Z,22.558594
2019-02-27T10:28:10.558Z,22.357178
2019-02-27T10:29:19.018Z,22.662354
2019-02-27T10:30:27.675Z,22.460938
2019-02-27T10:31:37.175Z,22.357178
2019-02-27T10:32:46.691Z,22.460938
2019-02-27T10:33:56.189Z,22.546387
2019-02-27T10:35:05.691Z,22.045898
2019-02-27T10:36:16.254Z,21.746826
2019-02-27T10:37:24.712Z,21.838379
2019-02-27T10:38:40.047Z,21.734619
2019-02-27T10:39:44.707Z,21.325684
2019-02-27T10:40:54.223Z,21.5271
2019-02-27T10:42:03.724Z,21.923828
2019-02-27T10:43:13.224Z,21.728516
2019-02-27T10:44:22.733Z,21.136475
2019-02-27T10:45:32.261Z,21.246338
2019-02-27T10:46:41.755Z,21.948242
2019-02-27T10:47:51.266Z,21.258545
2019-02-27T10:49:00.766Z,21.154785
2019-02-27T10:50:10.265Z,21.057129
2019-02-27T10:51:19.780Z,22.155762
2019-02-27T10:52:29.289Z,22.271729
2019-02-27T10:53:38.791Z,21.868896
2019-02-27T10:54:48.291Z,21.765137
2019-02-27T10:55:57.826Z,22.058105
2019-02-27T10:57:07.317Z,21.868896
2019-02-27T10:58:16.807Z,22.369385
2019-02-27T10:59:25.309Z,22.369385
2019-02-27T11:00:34.826Z,22.271729
2019-02-27T11:01:44.329Z,22.894287
2019-02-27T11:02:53.828Z,23.608398
2019-02-27T11:04:03.805Z,23.693848
2019-02-27T11:05:15.037Z,23.486328
2019-02-27T11:06:23.317Z,23.272705
2019-02-27T11:07:33.804Z,23.260498
2019-02-27T11:08:43.321Z,22.961426
2019-02-27T11:09:52.819Z,23.059082
2019-02-27T11:11:02.334Z,22.851562
2019-02-27T11:12:12.832Z,23.651123
2019-02-27T11:13:22.340Z,22.137451
2019-02-27T11:14:32.685Z,22.235107
2019-02-27T11:15:42.157Z,21.844482
2019-02-27T11:16:50.809Z,21.734619
2019-02-27T11:18:04.117Z,22.338867
2019-02-27T11:19:10.796Z,23.242188
2019-02-27T11:20:22.096Z,24.041748
2019-02-27T11:21:30.774Z,23.242188
2019-02-27T11:22:40.290Z,23.529053
2019-02-27T11:23:49.793Z,23.120117
2019-02-27T11:24:59.356Z,22.216797
2019-02-27T11:26:08.837Z,22.125244
2019-02-27T11:27:18.337Z,22.43042
2019-02-27T11:28:27.842Z,23.120117
2019-02-27T11:29:37.342Z,23.016357
2019-02-27T11:30:46.872Z,22.314453
2019-02-27T11:31:56.427Z,22.003174
2019-02-27T11:33:05.936Z,22.106934
2019-02-27T11:34:16.133Z,21.697998
2019-02-27T11:35:25.913Z,21.697998
2019-02-27T11:36:34.991Z,20.996094
2019-02-27T11:37:47.433Z,20.898438
2019-02-27T11:38:56.618Z,21.09375
2019-02-27T11:40:05.304Z,20.996094
2019-02-27T11:41:15.280Z,20.996094
2019-02-27T11:42:23.906Z,20.983887
2019-02-27T11:43:34.407Z,20.788574
2019-02-27T11:44:49.376Z,20.776367
2019-02-27T11:45:57.989Z,20.965576
2019-02-27T11:47:04.874Z,20.263672
2019-02-27T11:48:15.452Z,20.367432
2019-02-27T11:49:25.952Z,20.458984
2019-02-27T11:50:35.455Z,20.257568
2019-02-27T11:51:44.972Z,20.544434
2019-02-27T11:52:55.470Z,20.050049
2019-02-27T11:54:08.222Z,19.647217
2019-02-27T11:55:15.569Z,19.958496
2019-02-27T11:56:25.996Z,20.349121
2019-02-27T11:57:35.501Z,20.245361
2019-02-27T11:58:45.004Z,19.836426
2019-02-27T11:59:54.508Z,20.135498
2019-02-27T12:01:04.035Z,20.53833
2019-02-27T12:02:13.530Z,20.336914
2019-02-27T12:03:23.039Z,19.830322
2019-02-27T12:04:32.545Z,19.921875
2019-02-27T12:05:42.054Z,19.012451
2019-02-27T12:06:51.570Z,19.311523
2019-02-27T12:08:01.080Z,21.594238
2019-02-27T12:09:10.585Z,19.98291
2019-02-27T12:10:20.096Z,20.97168
2019-02-27T12:11:29.608Z,20.361328
2019-02-27T12:12:39.117Z,17.86499
2019-02-27T12:13:48.620Z,18.652344
2019-02-27T12:14:59.121Z,19.335938
2019-02-27T12:16:10.551Z,18.237305
2019-02-27T12:17:19.139Z,17.633057
2019-02-27T12:18:32.160Z,17.724609
2019-02-27T12:19:42.031Z,16.339111
2019-02-27T12:20:52.981Z,17.74292
2019-02-27T12:22:00.205Z,18.041992
2019-02-27T12:23:10.062Z,18.041992
2019-02-27T12:24:18.961Z,18.127441
2019-02-27T12:25:29.919Z,17.938232
2019-02-27T12:26:37.489Z,18.817139
2019-02-27T12:27:49.343Z,17.913818
2019-02-27T12:28:56.124Z,18.103027
2019-02-27T12:30:05.617Z,16.809082
2019-02-27T12:31:15.105Z,16.809082
2019-02-27T12:32:24.618Z,16.998291
2019-02-27T12:33:34.484Z,16.491699
2019-02-27T12:34:43.646Z,16.589355
2019-02-27T12:35:53.159Z,16.387939
2019-02-27T12:37:02.695Z,16.876221
2019-02-27T12:38:13.223Z,16.571045
2019-02-27T12:39:22.726Z,16.656494
2019-02-27T12:40:32.235Z,15.856934
2019-02-27T12:41:41.743Z,15.551758
2019-02-27T12:42:51.264Z,15.753174
2019-02-27T12:44:00.759Z,15.258789
2019-02-27T12:45:10.265Z,15.85083
2019-02-27T12:46:19.794Z,15.74707
2019-02-27T12:47:29.343Z,16.619873
2019-02-27T12:48:38.852Z,15.155029
2019-02-27T12:49:51.505Z,15.045166
2019-02-27T12:51:03.227Z,16.424561
2019-02-27T12:52:12.041Z,14.849854
2019-02-27T12:53:21.485Z,15.155029
2019-02-27T12:54:28.456Z,15.9729
2019-02-27T12:55:37.952Z,16.278076
2019-02-27T12:56:47.460Z,16.259766
2019-02-27T12:57:56.969Z,15.95459
2019-02-27T12:59:06.488Z,16.442871
2019-02-27T13:00:15.998Z,15.148926
2019-02-27T13:01:25.503Z,15.252686
2019-02-27T13:02:35.747Z,15.148926
2019-02-27T13:03:44.498Z,15.350342
2019-02-27T13:04:54.002Z,15.447998
2019-02-27T13:06:03.489Z,15.667725
2019-02-27T13:07:13.006Z,16.296387
2019-02-27T13:08:22.510Z,16.290283
2019-02-27T13:09:32.062Z,16.174316
2019-02-27T13:10:41.567Z,16.070557
2019-02-27T13:11:51.086Z,16.064453
2019-02-27T13:13:00.590Z,15.856934
2019-02-27T13:14:10.103Z,15.356445
2019-02-27T13:15:19.611Z,16.137695
2019-02-27T13:16:29.115Z,15.637207
2019-02-27T13:17:38.638Z,15.148926